sensor_id;sensor_type;location;lat;lon;timestamp;P1;durP1;ratioP1;P2;durP2;ratioP2
10904;SDS011;5505;51.450;9.254;2022-07-03T00:00:16;1.63;;;1.53;;
10904;SDS011;5505;51.450;9.254;2022-07-03T00:03:05;1.43;;;1.30;;
10904;SDS011;5505;51.450;9.254;2022-07-03T00:05:51;0.80;;;0.70;;
10904;SDS011;5505;51.450;9.254;2022-07-03T00:08:38;1.63;;;0.90;;
10904;SDS011;5505;51.450;9.254;2022-07-03T00:11:25;0.80;;;0.67;;
10904;SDS011;5505;51.450;9.254;2022-07-03T00:14:12;1.20;;;0.70;;
10904;SDS011;5505;51.450;9.254;2022-07-03T00:16:59;1.67;;;0.60;;
10904;SDS011;5505;51.450;9.254;2022-07-03T00:19:47;0.63;;;0.63;;
10904;SDS011;5505;51.450;9.254;2022-07-03T00:22:37;2.33;;;0.77;;
10904;SDS011;5505;51.450;9.254;2022-07-03T00:25:27;0.57;;;0.57;;
10904;SDS011;5505;51.450;9.254;2022-07-03T00:28:14;0.57;;;0.50;;
10904;SDS011;5505;51.450;9.254;2022-07-03T00:31:02;1.10;;;0.70;;
10904;SDS011;5505;51.450;9.254;2022-07-03T00:33:48;1.03;;;0.60;;
10904;SDS011;5505;51.450;9.254;2022-07-03T00:36:40;0.83;;;0.80;;
10904;SDS011;5505;51.450;9.254;2022-07-03T00:39:27;0.60;;;0.60;;
10904;SDS011;5505;51.450;9.254;2022-07-03T00:42:15;0.90;;;0.70;;
10904;SDS011;5505;51.450;9.254;2022-07-03T00:45:06;0.77;;;0.77;;
10904;SDS011;5505;51.450;9.254;2022-07-03T00:47:54;1.00;;;0.90;;
10904;SDS011;5505;51.450;9.254;2022-07-03T00:50:45;0.60;;;0.60;;
10904;SDS011;5505;51.450;9.254;2022-07-03T00:53:35;1.80;;;0.60;;
10904;SDS011;5505;51.450;9.254;2022-07-03T00:56:23;1.83;;;0.70;;
10904;SDS011;5505;51.450;9.254;2022-07-03T00:59:11;1.17;;;0.67;;
10904;SDS011;5505;51.450;9.254;2022-07-03T01:02:03;0.73;;;0.70;;
10904;SDS011;5505;51.450;9.254;2022-07-03T01:04:52;2.50;;;0.80;;
10904;SDS011;5505;51.450;9.254;2022-07-03T01:07:51;0.97;;;0.60;;
10904;SDS011;5505;51.450;9.254;2022-07-03T01:10:47;0.80;;;0.80;;
10904;SDS011;5505;51.450;9.254;2022-07-03T01:13:43;0.80;;;0.80;;
10904;SDS011;5505;51.450;9.254;2022-07-03T01:16:41;0.80;;;0.60;;
10904;SDS011;5505;51.450;9.254;2022-07-03T01:19:39;0.90;;;0.80;;
10904;SDS011;5505;51.450;9.254;2022-07-03T01:22:31;0.97;;;0.70;;
10904;SDS011;5505;51.450;9.254;2022-07-03T01:25:22;0.77;;;0.77;;
10904;SDS011;5505;51.450;9.254;2022-07-03T01:28:12;0.60;;;0.60;;
10904;SDS011;5505;51.450;9.254;2022-07-03T01:31:01;1.00;;;0.60;;
10904;SDS011;5505;51.450;9.254;2022-07-03T01:33:50;0.87;;;0.80;;
10904;SDS011;5505;51.450;9.254;2022-07-03T01:36:38;0.80;;;0.57;;
10904;SDS011;5505;51.450;9.254;2022-07-03T01:39:28;0.70;;;0.70;;
10904;SDS011;5505;51.450;9.254;2022-07-03T01:42:17;0.77;;;0.63;;
10904;SDS011;5505;51.450;9.254;2022-07-03T01:45:06;1.93;;;0.70;;
10904;SDS011;5505;51.450;9.254;2022-07-03T01:47:56;1.60;;;0.90;;
10904;SDS011;5505;51.450;9.254;2022-07-03T01:50:44;1.97;;;0.67;;
10904;SDS011;5505;51.450;9.254;2022-07-03T01:53:34;2.20;;;0.90;;
10904;SDS011;5505;51.450;9.254;2022-07-03T01:56:26;0.70;;;0.70;;
10904;SDS011;5505;51.450;9.254;2022-07-03T01:59:18;1.47;;;0.90;;
10904;SDS011;5505;51.450;9.254;2022-07-03T02:02:09;0.73;;;0.67;;
10904;SDS011;5505;51.450;9.254;2022-07-03T02:05:15;1.50;;;0.70;;
10904;SDS011;5505;51.450;9.254;2022-07-03T02:08:16;2.57;;;0.90;;
10904;SDS011;5505;51.450;9.254;2022-07-03T02:11:14;0.60;;;0.60;;
10904;SDS011;5505;51.450;9.254;2022-07-03T02:14:09;0.70;;;0.70;;
10904;SDS011;5505;51.450;9.254;2022-07-03T02:17:01;0.70;;;0.70;;
10904;SDS011;5505;51.450;9.254;2022-07-03T02:19:59;1.13;;;0.80;;
10904;SDS011;5505;51.450;9.254;2022-07-03T02:22:51;2.70;;;1.10;;
10904;SDS011;5505;51.450;9.254;2022-07-03T02:25:42;0.60;;;0.60;;
10904;SDS011;5505;51.450;9.254;2022-07-03T02:28:34;3.13;;;0.90;;
10904;SDS011;5505;51.450;9.254;2022-07-03T02:31:37;2.50;;;0.80;;
10904;SDS011;5505;51.450;9.254;2022-07-03T02:34:27;3.33;;;0.90;;
10904;SDS011;5505;51.450;9.254;2022-07-03T02:37:17;0.70;;;0.60;;
10904;SDS011;5505;51.450;9.254;2022-07-03T02:40:07;2.03;;;0.70;;
10904;SDS011;5505;51.450;9.254;2022-07-03T02:42:58;3.10;;;0.80;;
10904;SDS011;5505;51.450;9.254;2022-07-03T02:45:57;1.37;;;0.77;;
10904;SDS011;5505;51.450;9.254;2022-07-03T02:49:14;1.00;;;0.90;;
10904;SDS011;5505;51.450;9.254;2022-07-03T02:52:10;2.20;;;0.80;;
10904;SDS011;5505;51.450;9.254;2022-07-03T02:55:04;1.37;;;0.90;;
10904;SDS011;5505;51.450;9.254;2022-07-03T02:57:57;2.93;;;0.80;;
10904;SDS011;5505;51.450;9.254;2022-07-03T03:00:57;1.77;;;0.90;;
10904;SDS011;5505;51.450;9.254;2022-07-03T03:03:45;1.43;;;1.07;;
10904;SDS011;5505;51.450;9.254;2022-07-03T03:06:41;1.70;;;1.00;;
10904;SDS011;5505;51.450;9.254;2022-07-03T03:09:34;1.67;;;0.90;;
10904;SDS011;5505;51.450;9.254;2022-07-03T03:12:29;1.63;;;1.10;;
10904;SDS011;5505;51.450;9.254;2022-07-03T03:15:21;0.90;;;0.90;;
10904;SDS011;5505;51.450;9.254;2022-07-03T03:18:13;1.10;;;1.00;;
10904;SDS011;5505;51.450;9.254;2022-07-03T03:21:10;1.23;;;0.90;;
10904;SDS011;5505;51.450;9.254;2022-07-03T03:24:01;1.37;;;1.00;;
10904;SDS011;5505;51.450;9.254;2022-07-03T03:26:48;0.87;;;0.80;;
10904;SDS011;5505;51.450;9.254;2022-07-03T03:29:37;1.97;;;0.90;;
10904;SDS011;5505;51.450;9.254;2022-07-03T03:32:24;3.03;;;1.10;;
10904;SDS011;5505;51.450;9.254;2022-07-03T03:35:12;1.27;;;1.10;;
10904;SDS011;5505;51.450;9.254;2022-07-03T03:37:59;2.97;;;1.30;;
10904;SDS011;5505;51.450;9.254;2022-07-03T03:40:45;1.10;;;1.00;;
10904;SDS011;5505;51.450;9.254;2022-07-03T03:43:34;1.87;;;1.10;;
10904;SDS011;5505;51.450;9.254;2022-07-03T03:46:22;1.57;;;1.00;;
10904;SDS011;5505;51.450;9.254;2022-07-03T03:49:09;1.27;;;1.17;;
10904;SDS011;5505;51.450;9.254;2022-07-03T03:51:56;1.53;;;0.93;;
10904;SDS011;5505;51.450;9.254;2022-07-03T03:54:43;0.80;;;0.80;;
10904;SDS011;5505;51.450;9.254;2022-07-03T03:57:30;1.43;;;0.90;;
10904;SDS011;5505;51.450;9.254;2022-07-03T04:00:17;2.40;;;1.20;;
10904;SDS011;5505;51.450;9.254;2022-07-03T04:03:05;1.87;;;1.00;;
10904;SDS011;5505;51.450;9.254;2022-07-03T04:05:52;3.47;;;1.37;;
10904;SDS011;5505;51.450;9.254;2022-07-03T04:08:39;0.90;;;0.90;;
10904;SDS011;5505;51.450;9.254;2022-07-03T04:11:25;2.20;;;0.97;;
10904;SDS011;5505;51.450;9.254;2022-07-03T04:14:12;2.37;;;1.00;;
10904;SDS011;5505;51.450;9.254;2022-07-03T04:16:59;1.73;;;1.10;;
10904;SDS011;5505;51.450;9.254;2022-07-03T04:19:47;1.33;;;1.17;;
10904;SDS011;5505;51.450;9.254;2022-07-03T04:22:34;1.53;;;1.20;;
10904;SDS011;5505;51.450;9.254;2022-07-03T04:25:21;1.33;;;0.93;;
10904;SDS011;5505;51.450;9.254;2022-07-03T04:28:08;0.90;;;0.90;;
10904;SDS011;5505;51.450;9.254;2022-07-03T04:30:55;2.00;;;1.03;;
10904;SDS011;5505;51.450;9.254;2022-07-03T04:33:42;1.27;;;0.90;;
10904;SDS011;5505;51.450;9.254;2022-07-03T04:36:30;1.70;;;1.13;;
10904;SDS011;5505;51.450;9.254;2022-07-03T04:39:17;3.27;;;1.13;;
10904;SDS011;5505;51.450;9.254;2022-07-03T04:42:04;1.47;;;1.00;;
10904;SDS011;5505;51.450;9.254;2022-07-03T04:44:51;3.47;;;1.10;;
10904;SDS011;5505;51.450;9.254;2022-07-03T04:47:37;1.40;;;1.23;;
10904;SDS011;5505;51.450;9.254;2022-07-03T04:50:24;2.80;;;1.20;;
10904;SDS011;5505;51.450;9.254;2022-07-03T04:53:12;1.30;;;1.20;;
10904;SDS011;5505;51.450;9.254;2022-07-03T04:55:59;1.23;;;1.13;;
10904;SDS011;5505;51.450;9.254;2022-07-03T04:58:46;1.23;;;1.13;;
10904;SDS011;5505;51.450;9.254;2022-07-03T05:01:33;2.70;;;1.50;;
10904;SDS011;5505;51.450;9.254;2022-07-03T05:04:19;2.33;;;1.50;;
10904;SDS011;5505;51.450;9.254;2022-07-03T05:07:06;2.93;;;1.67;;
10904;SDS011;5505;51.450;9.254;2022-07-03T05:09:54;2.50;;;1.50;;
10904;SDS011;5505;51.450;9.254;2022-07-03T05:12:42;1.60;;;1.50;;
10904;SDS011;5505;51.450;9.254;2022-07-03T05:15:28;1.30;;;1.20;;
10904;SDS011;5505;51.450;9.254;2022-07-03T05:18:15;1.27;;;1.17;;
10904;SDS011;5505;51.450;9.254;2022-07-03T05:21:02;1.67;;;1.57;;
10904;SDS011;5505;51.450;9.254;2022-07-03T05:23:49;1.60;;;1.43;;
10904;SDS011;5505;51.450;9.254;2022-07-03T05:26:37;1.60;;;1.50;;
10904;SDS011;5505;51.450;9.254;2022-07-03T05:29:24;1.50;;;1.40;;
10904;SDS011;5505;51.450;9.254;2022-07-03T05:32:11;1.30;;;1.17;;
10904;SDS011;5505;51.450;9.254;2022-07-03T05:34:57;2.83;;;1.20;;
10904;SDS011;5505;51.450;9.254;2022-07-03T05:37:44;3.50;;;1.27;;
10904;SDS011;5505;51.450;9.254;2022-07-03T05:40:31;1.60;;;1.50;;
10904;SDS011;5505;51.450;9.254;2022-07-03T05:43:19;2.17;;;1.50;;
10904;SDS011;5505;51.450;9.254;2022-07-03T05:46:06;2.00;;;1.00;;
10904;SDS011;5505;51.450;9.254;2022-07-03T05:48:53;1.37;;;1.27;;
10904;SDS011;5505;51.450;9.254;2022-07-03T05:51:39;1.20;;;1.10;;
10904;SDS011;5505;51.450;9.254;2022-07-03T05:54:26;1.53;;;1.10;;
10904;SDS011;5505;51.450;9.254;2022-07-03T05:57:13;1.73;;;1.30;;
10904;SDS011;5505;51.450;9.254;2022-07-03T06:00:01;1.37;;;1.27;;
10904;SDS011;5505;51.450;9.254;2022-07-03T06:02:49;2.93;;;1.20;;
10904;SDS011;5505;51.450;9.254;2022-07-03T06:05:36;1.73;;;1.20;;
10904;SDS011;5505;51.450;9.254;2022-07-03T06:08:23;1.20;;;1.10;;
10904;SDS011;5505;51.450;9.254;2022-07-03T06:11:10;2.23;;;1.03;;
10904;SDS011;5505;51.450;9.254;2022-07-03T06:13:57;1.20;;;1.10;;
10904;SDS011;5505;51.450;9.254;2022-07-03T06:16:45;1.00;;;1.00;;
10904;SDS011;5505;51.450;9.254;2022-07-03T06:19:32;2.00;;;1.17;;
10904;SDS011;5505;51.450;9.254;2022-07-03T06:22:19;1.03;;;1.03;;
10904;SDS011;5505;51.450;9.254;2022-07-03T06:25:06;1.17;;;1.00;;
10904;SDS011;5505;51.450;9.254;2022-07-03T06:27:54;1.17;;;1.07;;
10904;SDS011;5505;51.450;9.254;2022-07-03T06:30:40;1.30;;;0.93;;
10904;SDS011;5505;51.450;9.254;2022-07-03T06:33:29;1.20;;;1.10;;
10904;SDS011;5505;51.450;9.254;2022-07-03T06:36:15;1.40;;;1.30;;
10904;SDS011;5505;51.450;9.254;2022-07-03T06:39:02;0.97;;;0.90;;
10904;SDS011;5505;51.450;9.254;2022-07-03T06:41:49;5.23;;;1.00;;
10904;SDS011;5505;51.450;9.254;2022-07-03T06:44:36;1.57;;;1.00;;
10904;SDS011;5505;51.450;9.254;2022-07-03T06:47:22;3.17;;;1.20;;
10904;SDS011;5505;51.450;9.254;2022-07-03T06:50:10;1.23;;;0.77;;
10904;SDS011;5505;51.450;9.254;2022-07-03T06:52:57;0.97;;;0.73;;
10904;SDS011;5505;51.450;9.254;2022-07-03T06:55:45;0.70;;;0.70;;
10904;SDS011;5505;51.450;9.254;2022-07-03T06:58:32;0.90;;;0.90;;
10904;SDS011;5505;51.450;9.254;2022-07-03T07:01:19;1.33;;;1.17;;
10904;SDS011;5505;51.450;9.254;2022-07-03T07:04:06;1.47;;;0.93;;
10904;SDS011;5505;51.450;9.254;2022-07-03T07:06:54;1.43;;;0.70;;
10904;SDS011;5505;51.450;9.254;2022-07-03T07:09:41;2.53;;;1.03;;
10904;SDS011;5505;51.450;9.254;2022-07-03T07:12:27;1.20;;;0.97;;
10904;SDS011;5505;51.450;9.254;2022-07-03T07:15:14;1.90;;;0.97;;
10904;SDS011;5505;51.450;9.254;2022-07-03T07:18:01;1.30;;;0.80;;
10904;SDS011;5505;51.450;9.254;2022-07-03T07:20:48;0.87;;;0.87;;
10904;SDS011;5505;51.450;9.254;2022-07-03T07:23:36;0.63;;;0.60;;
10904;SDS011;5505;51.450;9.254;2022-07-03T07:26:23;1.10;;;0.70;;
10904;SDS011;5505;51.450;9.254;2022-07-03T07:29:10;1.30;;;0.57;;
10904;SDS011;5505;51.450;9.254;2022-07-03T07:31:56;0.80;;;0.70;;
10904;SDS011;5505;51.450;9.254;2022-07-03T07:34:43;0.67;;;0.67;;
10904;SDS011;5505;51.450;9.254;2022-07-03T07:37:30;0.77;;;0.53;;
10904;SDS011;5505;51.450;9.254;2022-07-03T07:40:18;1.97;;;0.50;;
10904;SDS011;5505;51.450;9.254;2022-07-03T07:43:05;1.07;;;0.60;;
10904;SDS011;5505;51.450;9.254;2022-07-03T07:45:52;1.03;;;0.60;;
10904;SDS011;5505;51.450;9.254;2022-07-03T07:48:39;1.23;;;0.70;;
10904;SDS011;5505;51.450;9.254;2022-07-03T07:51:26;2.40;;;0.80;;
10904;SDS011;5505;51.450;9.254;2022-07-03T07:54:13;0.80;;;0.60;;
10904;SDS011;5505;51.450;9.254;2022-07-03T07:57:01;1.00;;;0.70;;
10904;SDS011;5505;51.450;9.254;2022-07-03T07:59:47;1.17;;;0.70;;
10904;SDS011;5505;51.450;9.254;2022-07-03T08:02:34;2.10;;;0.70;;
10904;SDS011;5505;51.450;9.254;2022-07-03T08:05:41;0.50;;;0.50;;
10904;SDS011;5505;51.450;9.254;2022-07-03T08:08:28;0.93;;;0.50;;
10904;SDS011;5505;51.450;9.254;2022-07-03T08:11:14;0.87;;;0.77;;
10904;SDS011;5505;51.450;9.254;2022-07-03T08:14:03;2.03;;;0.70;;
10904;SDS011;5505;51.450;9.254;2022-07-03T08:16:52;0.73;;;0.50;;
10904;SDS011;5505;51.450;9.254;2022-07-03T08:19:39;2.20;;;0.87;;
10904;SDS011;5505;51.450;9.254;2022-07-03T08:22:26;0.80;;;0.60;;
10904;SDS011;5505;51.450;9.254;2022-07-03T08:25:13;0.40;;;0.40;;
10904;SDS011;5505;51.450;9.254;2022-07-03T08:27:59;1.40;;;0.70;;
10904;SDS011;5505;51.450;9.254;2022-07-03T08:30:48;1.40;;;0.57;;
10904;SDS011;5505;51.450;9.254;2022-07-03T08:33:34;0.70;;;0.40;;
10904;SDS011;5505;51.450;9.254;2022-07-03T08:36:21;2.90;;;0.73;;
10904;SDS011;5505;51.450;9.254;2022-07-03T08:39:08;0.70;;;0.43;;
10904;SDS011;5505;51.450;9.254;2022-07-03T08:41:55;1.40;;;0.57;;
10904;SDS011;5505;51.450;9.254;2022-07-03T08:44:44;1.30;;;0.73;;
10904;SDS011;5505;51.450;9.254;2022-07-03T08:47:34;1.93;;;0.70;;
10904;SDS011;5505;51.450;9.254;2022-07-03T08:50:23;0.50;;;0.40;;
10904;SDS011;5505;51.450;9.254;2022-07-03T08:53:10;2.93;;;0.77;;
10904;SDS011;5505;51.450;9.254;2022-07-03T08:55:57;1.00;;;0.70;;
10904;SDS011;5505;51.450;9.254;2022-07-03T08:58:46;0.70;;;0.50;;
10904;SDS011;5505;51.450;9.254;2022-07-03T09:01:33;2.70;;;0.70;;
10904;SDS011;5505;51.450;9.254;2022-07-03T09:04:27;1.00;;;0.50;;
10904;SDS011;5505;51.450;9.254;2022-07-03T09:07:14;1.37;;;0.43;;
10904;SDS011;5505;51.450;9.254;2022-07-03T09:10:04;0.93;;;0.53;;
10904;SDS011;5505;51.450;9.254;2022-07-03T09:12:51;2.60;;;0.63;;
10904;SDS011;5505;51.450;9.254;2022-07-03T09:15:38;1.63;;;0.60;;
10904;SDS011;5505;51.450;9.254;2022-07-03T09:18:35;1.60;;;0.57;;
10904;SDS011;5505;51.450;9.254;2022-07-03T09:21:25;1.10;;;0.60;;
10904;SDS011;5505;51.450;9.254;2022-07-03T09:24:20;0.50;;;0.50;;
10904;SDS011;5505;51.450;9.254;2022-07-03T09:27:08;2.90;;;0.60;;
10904;SDS011;5505;51.450;9.254;2022-07-03T09:30:02;0.70;;;0.50;;
10904;SDS011;5505;51.450;9.254;2022-07-03T09:32:51;1.17;;;0.50;;
10904;SDS011;5505;51.450;9.254;2022-07-03T09:35:38;0.67;;;0.40;;
10904;SDS011;5505;51.450;9.254;2022-07-03T09:38:27;1.63;;;0.60;;
10904;SDS011;5505;51.450;9.254;2022-07-03T09:41:15;3.20;;;0.60;;
10904;SDS011;5505;51.450;9.254;2022-07-03T09:44:02;0.52;;;0.35;;
10904;SDS011;5505;51.450;9.254;2022-07-03T09:46:55;0.93;;;0.50;;
10904;SDS011;5505;51.450;9.254;2022-07-03T09:49:53;3.55;;;0.50;;
10904;SDS011;5505;51.450;9.254;2022-07-03T09:52:41;1.43;;;0.50;;
10904;SDS011;5505;51.450;9.254;2022-07-03T09:55:31;1.77;;;0.60;;
10904;SDS011;5505;51.450;9.254;2022-07-03T09:58:18;1.13;;;0.60;;
10904;SDS011;5505;51.450;9.254;2022-07-03T10:01:17;1.00;;;0.60;;
10904;SDS011;5505;51.450;9.254;2022-07-03T10:04:08;1.47;;;0.60;;
10904;SDS011;5505;51.450;9.254;2022-07-03T10:06:56;0.87;;;0.50;;
10904;SDS011;5505;51.450;9.254;2022-07-03T10:09:44;1.90;;;0.50;;
10904;SDS011;5505;51.450;9.254;2022-07-03T10:12:33;2.10;;;0.60;;
10904;SDS011;5505;51.450;9.254;2022-07-03T10:15:20;1.08;;;0.70;;
10904;SDS011;5505;51.450;9.254;2022-07-03T10:18:08;0.47;;;0.40;;
10904;SDS011;5505;51.450;9.254;2022-07-03T10:20:57;1.17;;;0.50;;
10904;SDS011;5505;51.450;9.254;2022-07-03T10:23:44;0.57;;;0.57;;
10904;SDS011;5505;51.450;9.254;2022-07-03T10:26:32;0.80;;;0.40;;
10904;SDS011;5505;51.450;9.254;2022-07-03T10:29:21;1.63;;;0.57;;
10904;SDS011;5505;51.450;9.254;2022-07-03T10:32:09;1.17;;;0.43;;
10904;SDS011;5505;51.450;9.254;2022-07-03T10:34:58;1.27;;;0.50;;
10904;SDS011;5505;51.450;9.254;2022-07-03T10:37:55;1.90;;;0.40;;
10904;SDS011;5505;51.450;9.254;2022-07-03T10:41:01;2.10;;;0.60;;
10904;SDS011;5505;51.450;9.254;2022-07-03T10:44:09;2.80;;;0.67;;
10904;SDS011;5505;51.450;9.254;2022-07-03T10:50:23;0.53;;;0.30;;
10904;SDS011;5505;51.450;9.254;2022-07-03T10:53:21;1.37;;;0.70;;
10904;SDS011;5505;51.450;9.254;2022-07-03T10:56:09;14.37;;;1.00;;
10904;SDS011;5505;51.450;9.254;2022-07-03T10:58:55;3.85;;;0.40;;
10904;SDS011;5505;51.450;9.254;2022-07-03T11:01:43;1.25;;;0.60;;
10904;SDS011;5505;51.450;9.254;2022-07-03T11:04:39;0.65;;;0.65;;
10904;SDS011;5505;51.450;9.254;2022-07-03T11:08:06;2.65;;;0.50;;
10904;SDS011;5505;51.450;9.254;2022-07-03T11:10:54;0.53;;;0.47;;
10904;SDS011;5505;51.450;9.254;2022-07-03T11:17:16;0.30;;;0.30;;
10904;SDS011;5505;51.450;9.254;2022-07-03T11:20:06;2.65;;;0.50;;
10904;SDS011;5505;51.450;9.254;2022-07-03T11:23:07;0.82;;;0.40;;
10904;SDS011;5505;51.450;9.254;2022-07-03T11:26:18;3.53;;;0.50;;
10904;SDS011;5505;51.450;9.254;2022-07-03T11:29:08;1.67;;;0.60;;
10904;SDS011;5505;51.450;9.254;2022-07-03T11:35:46;3.90;;;2.10;;
10904;SDS011;5505;51.450;9.254;2022-07-03T11:38:38;2.33;;;0.60;;
10904;SDS011;5505;51.450;9.254;2022-07-03T11:41:26;0.73;;;0.40;;
10904;SDS011;5505;51.450;9.254;2022-07-03T11:44:15;1.23;;;0.53;;
10904;SDS011;5505;51.450;9.254;2022-07-03T11:47:03;1.17;;;0.63;;
10904;SDS011;5505;51.450;9.254;2022-07-03T11:49:51;0.90;;;0.40;;
10904;SDS011;5505;51.450;9.254;2022-07-03T11:52:39;1.30;;;0.50;;
10904;SDS011;5505;51.450;9.254;2022-07-03T11:55:26;0.70;;;0.40;;
10904;SDS011;5505;51.450;9.254;2022-07-03T11:58:16;1.75;;;0.50;;
10904;SDS011;5505;51.450;9.254;2022-07-03T12:01:02;1.55;;;0.60;;
10904;SDS011;5505;51.450;9.254;2022-07-03T12:03:49;1.03;;;0.50;;
10904;SDS011;5505;51.450;9.254;2022-07-03T12:06:37;2.13;;;0.53;;
10904;SDS011;5505;51.450;9.254;2022-07-03T12:09:26;1.60;;;0.73;;
10904;SDS011;5505;51.450;9.254;2022-07-03T12:12:15;1.48;;;0.65;;
10904;SDS011;5505;51.450;9.254;2022-07-03T12:15:01;0.65;;;0.45;;
10904;SDS011;5505;51.450;9.254;2022-07-03T12:17:48;1.10;;;0.50;;
10904;SDS011;5505;51.450;9.254;2022-07-03T12:20:35;2.40;;;0.52;;
10904;SDS011;5505;51.450;9.254;2022-07-03T12:23:22;0.50;;;0.43;;
10904;SDS011;5505;51.450;9.254;2022-07-03T12:26:10;0.50;;;0.50;;
10904;SDS011;5505;51.450;9.254;2022-07-03T12:28:58;0.75;;;0.45;;
10904;SDS011;5505;51.450;9.254;2022-07-03T12:31:46;0.63;;;0.50;;
10904;SDS011;5505;51.450;9.254;2022-07-03T12:34:34;2.13;;;0.50;;
10904;SDS011;5505;51.450;9.254;2022-07-03T12:37:32;3.58;;;0.55;;
10904;SDS011;5505;51.450;9.254;2022-07-03T12:40:20;1.45;;;0.40;;
10904;SDS011;5505;51.450;9.254;2022-07-03T12:43:09;0.70;;;0.50;;
10904;SDS011;5505;51.450;9.254;2022-07-03T12:45:55;2.22;;;0.88;;
10904;SDS011;5505;51.450;9.254;2022-07-03T12:48:46;1.10;;;0.57;;
10904;SDS011;5505;51.450;9.254;2022-07-03T12:51:40;0.73;;;0.43;;
10904;SDS011;5505;51.450;9.254;2022-07-03T12:54:32;1.20;;;0.60;;
10904;SDS011;5505;51.450;9.254;2022-07-03T12:57:19;3.40;;;0.60;;
10904;SDS011;5505;51.450;9.254;2022-07-03T13:00:27;0.80;;;0.50;;
10904;SDS011;5505;51.450;9.254;2022-07-03T13:03:25;0.60;;;0.40;;
10904;SDS011;5505;51.450;9.254;2022-07-03T13:06:12;1.05;;;0.50;;
10904;SDS011;5505;51.450;9.254;2022-07-03T13:09:00;1.65;;;0.50;;
10904;SDS011;5505;51.450;9.254;2022-07-03T13:11:48;0.90;;;0.43;;
10904;SDS011;5505;51.450;9.254;2022-07-03T13:14:35;0.65;;;0.50;;
10904;SDS011;5505;51.450;9.254;2022-07-03T13:17:23;5.05;;;0.65;;
10904;SDS011;5505;51.450;9.254;2022-07-03T13:20:30;0.88;;;0.57;;
10904;SDS011;5505;51.450;9.254;2022-07-03T13:23:17;0.82;;;0.50;;
10904;SDS011;5505;51.450;9.254;2022-07-03T13:26:04;1.50;;;0.50;;
10904;SDS011;5505;51.450;9.254;2022-07-03T13:28:51;1.92;;;0.45;;
10904;SDS011;5505;51.450;9.254;2022-07-03T13:31:38;0.57;;;0.50;;
10904;SDS011;5505;51.450;9.254;2022-07-03T13:34:26;5.40;;;0.90;;
10904;SDS011;5505;51.450;9.254;2022-07-03T13:37:13;2.33;;;0.70;;
10904;SDS011;5505;51.450;9.254;2022-07-03T13:40:00;0.47;;;0.40;;
10904;SDS011;5505;51.450;9.254;2022-07-03T13:42:47;1.70;;;0.47;;
10904;SDS011;5505;51.450;9.254;2022-07-03T13:45:33;4.57;;;0.60;;
10904;SDS011;5505;51.450;9.254;2022-07-03T13:48:20;2.83;;;0.77;;
10904;SDS011;5505;51.450;9.254;2022-07-03T13:51:08;1.75;;;0.50;;
10904;SDS011;5505;51.450;9.254;2022-07-03T13:53:55;1.15;;;0.40;;
10904;SDS011;5505;51.450;9.254;2022-07-03T13:56:42;0.80;;;0.40;;
10904;SDS011;5505;51.450;9.254;2022-07-03T13:59:29;1.93;;;0.73;;
10904;SDS011;5505;51.450;9.254;2022-07-03T14:02:16;2.00;;;1.00;;
10904;SDS011;5505;51.450;9.254;2022-07-03T14:05:03;0.82;;;0.40;;
10904;SDS011;5505;51.450;9.254;2022-07-03T14:07:52;0.85;;;0.50;;
10904;SDS011;5505;51.450;9.254;2022-07-03T14:10:40;3.35;;;0.50;;
10904;SDS011;5505;51.450;9.254;2022-07-03T14:13:27;2.33;;;0.70;;
10904;SDS011;5505;51.450;9.254;2022-07-03T14:16:13;0.93;;;0.50;;
10904;SDS011;5505;51.450;9.254;2022-07-03T14:19:00;0.50;;;0.30;;
10904;SDS011;5505;51.450;9.254;2022-07-03T14:21:50;1.00;;;0.50;;
10904;SDS011;5505;51.450;9.254;2022-07-03T14:24:39;2.08;;;0.47;;
10904;SDS011;5505;51.450;9.254;2022-07-03T14:27:25;0.45;;;0.40;;
10904;SDS011;5505;51.450;9.254;2022-07-03T14:30:30;1.15;;;0.50;;
10904;SDS011;5505;51.450;9.254;2022-07-03T14:33:34;1.70;;;0.30;;
10904;SDS011;5505;51.450;9.254;2022-07-03T14:36:21;1.67;;;0.60;;
10904;SDS011;5505;51.450;9.254;2022-07-03T14:39:10;2.65;;;0.60;;
10904;SDS011;5505;51.450;9.254;2022-07-03T14:42:00;1.08;;;0.55;;
10904;SDS011;5505;51.450;9.254;2022-07-03T14:44:48;0.82;;;0.40;;
10904;SDS011;5505;51.450;9.254;2022-07-03T14:47:35;1.80;;;0.50;;
10904;SDS011;5505;51.450;9.254;2022-07-03T14:50:21;6.78;;;0.60;;
10904;SDS011;5505;51.450;9.254;2022-07-03T14:53:08;0.77;;;0.50;;
10904;SDS011;5505;51.450;9.254;2022-07-03T14:55:55;1.55;;;0.45;;
10904;SDS011;5505;51.450;9.254;2022-07-03T14:58:44;0.55;;;0.40;;
10904;SDS011;5505;51.450;9.254;2022-07-03T15:01:33;2.90;;;0.50;;
10904;SDS011;5505;51.450;9.254;2022-07-03T15:04:25;2.70;;;0.50;;
10904;SDS011;5505;51.450;9.254;2022-07-03T15:07:24;1.83;;;0.50;;
10904;SDS011;5505;51.450;9.254;2022-07-03T15:10:13;1.95;;;0.45;;
10904;SDS011;5505;51.450;9.254;2022-07-03T15:13:01;0.47;;;0.30;;
10904;SDS011;5505;51.450;9.254;2022-07-03T15:15:51;1.35;;;0.50;;
10904;SDS011;5505;51.450;9.254;2022-07-03T15:18:38;1.20;;;0.40;;
10904;SDS011;5505;51.450;9.254;2022-07-03T15:21:25;0.87;;;0.57;;
10904;SDS011;5505;51.450;9.254;2022-07-03T15:24:15;0.83;;;0.43;;
10904;SDS011;5505;51.450;9.254;2022-07-03T15:27:08;0.67;;;0.30;;
10904;SDS011;5505;51.450;9.254;2022-07-03T15:29:55;1.73;;;0.57;;
10904;SDS011;5505;51.450;9.254;2022-07-03T15:32:46;0.83;;;0.30;;
10904;SDS011;5505;51.450;9.254;2022-07-03T15:35:33;2.20;;;0.60;;
10904;SDS011;5505;51.450;9.254;2022-07-03T15:38:20;0.80;;;0.40;;
10904;SDS011;5505;51.450;9.254;2022-07-03T15:41:11;1.03;;;0.33;;
10904;SDS011;5505;51.450;9.254;2022-07-03T15:44:10;5.57;;;0.50;;
10904;SDS011;5505;51.450;9.254;2022-07-03T15:47:10;2.23;;;0.57;;
10904;SDS011;5505;51.450;9.254;2022-07-03T15:50:07;2.97;;;0.70;;
10904;SDS011;5505;51.450;9.254;2022-07-03T15:53:00;2.57;;;0.50;;
10904;SDS011;5505;51.450;9.254;2022-07-03T15:55:49;1.67;;;0.50;;
10904;SDS011;5505;51.450;9.254;2022-07-03T15:58:44;1.77;;;0.67;;
10904;SDS011;5505;51.450;9.254;2022-07-03T16:01:38;0.97;;;0.40;;
10904;SDS011;5505;51.450;9.254;2022-07-03T16:04:49;0.70;;;0.47;;
10904;SDS011;5505;51.450;9.254;2022-07-03T16:07:49;2.33;;;0.70;;
10904;SDS011;5505;51.450;9.254;2022-07-03T16:10:38;1.43;;;0.77;;
10904;SDS011;5505;51.450;9.254;2022-07-03T16:13:26;1.27;;;0.50;;
10904;SDS011;5505;51.450;9.254;2022-07-03T16:16:13;3.28;;;0.55;;
10904;SDS011;5505;51.450;9.254;2022-07-03T16:19:02;1.43;;;0.67;;
10904;SDS011;5505;51.450;9.254;2022-07-03T16:21:50;0.65;;;0.50;;
10904;SDS011;5505;51.450;9.254;2022-07-03T16:24:42;2.22;;;0.70;;
10904;SDS011;5505;51.450;9.254;2022-07-03T16:27:31;1.15;;;0.60;;
10904;SDS011;5505;51.450;9.254;2022-07-03T16:30:18;0.40;;;0.40;;
10904;SDS011;5505;51.450;9.254;2022-07-03T16:33:05;1.70;;;0.70;;
10904;SDS011;5505;51.450;9.254;2022-07-03T16:35:57;3.13;;;0.77;;
10904;SDS011;5505;51.450;9.254;2022-07-03T16:38:51;4.77;;;3.50;;
10904;SDS011;5505;51.450;9.254;2022-07-03T16:41:44;12.50;;;7.30;;
10904;SDS011;5505;51.450;9.254;2022-07-03T16:44:38;4.67;;;4.20;;
10904;SDS011;5505;51.450;9.254;2022-07-03T16:47:27;9.35;;;8.43;;
10904;SDS011;5505;51.450;9.254;2022-07-03T16:50:16;4.93;;;2.60;;
10904;SDS011;5505;51.450;9.254;2022-07-03T16:53:04;4.00;;;1.00;;
10904;SDS011;5505;51.450;9.254;2022-07-03T16:55:51;3.10;;;1.70;;
10904;SDS011;5505;51.450;9.254;2022-07-03T16:58:40;2.40;;;1.10;;
10904;SDS011;5505;51.450;9.254;2022-07-03T17:01:29;4.60;;;2.10;;
10904;SDS011;5505;51.450;9.254;2022-07-03T17:04:25;2.97;;;0.90;;
10904;SDS011;5505;51.450;9.254;2022-07-03T17:07:13;2.60;;;0.75;;
10904;SDS011;5505;51.450;9.254;2022-07-03T17:10:02;0.83;;;0.67;;
10904;SDS011;5505;51.450;9.254;2022-07-03T17:12:49;3.53;;;0.70;;
10904;SDS011;5505;51.450;9.254;2022-07-03T17:15:37;1.13;;;0.70;;
10904;SDS011;5505;51.450;9.254;2022-07-03T17:18:36;1.67;;;0.60;;
10904;SDS011;5505;51.450;9.254;2022-07-03T17:21:28;2.30;;;1.13;;
10904;SDS011;5505;51.450;9.254;2022-07-03T17:24:17;1.57;;;0.57;;
10904;SDS011;5505;51.450;9.254;2022-07-03T17:27:05;1.87;;;0.70;;